createdAt,value
2017-06-09T00:00:29.379Z,72.81
2017-06-09T00:01:25.655Z,72.85
2017-06-09T00:02:21.919Z,72.82
2017-06-09T00:03:18.170Z,72.90
2017-06-09T00:04:14.434Z,72.83
2017-06-09T00:05:10.751Z,72.89
2017-06-09T00:06:07.014Z,72.91
2017-06-09T00:07:03.294Z,72.94
2017-06-09T00:07:59.551Z,72.97
2017-06-09T00:08:55.823Z,72.98
2017-06-09T00:09:52.095Z,73.01
2017-06-09T00:10:48.394Z,73.03
2017-06-09T00:11:44.651Z,73.06
2017-06-09T00:12:40.906Z,73.13
2017-06-09T00:13:37.178Z,73.11
2017-06-09T00:14:33.459Z,73.20
2017-06-09T00:15:29.711Z,73.20
2017-06-09T00:16:25.982Z,73.27
2017-06-09T00:17:22.247Z,73.30
2017-06-09T00:18:18.545Z,73.32
2017-06-09T00:19:14.807Z,73.33
2017-06-09T00:20:11.085Z,73.37
2017-06-09T00:21:07.602Z,73.43
2017-06-09T00:22:03.864Z,73.50
2017-06-09T00:23:00.123Z,73.59
2017-06-09T00:23:56.387Z,73.65
2017-06-09T00:24:52.663Z,73.68
2017-06-09T00:25:48.930Z,73.69
2017-06-09T00:26:45.218Z,73.73
2017-06-09T00:27:41.487Z,73.83
2017-06-09T00:28:37.738Z,73.91
2017-06-09T00:29:34.007Z,73.91
2017-06-09T00:30:30.271Z,73.91
2017-06-09T00:31:26.818Z,73.95
2017-06-09T00:32:23.106Z,74.05
2017-06-09T00:33:19.386Z,74.01
2017-06-09T00:34:15.693Z,74.03
2017-06-09T00:35:11.987Z,74.04
2017-06-09T00:36:09.187Z,74.04
2017-06-09T00:37:05.559Z,74.09
2017-06-09T00:38:02.164Z,74.10
2017-06-09T00:38:58.522Z,74.14
2017-06-09T00:39:54.780Z,74.15
2017-06-09T00:40:51.091Z,74.20
2017-06-09T00:41:47.660Z,74.23
2017-06-09T00:42:43.987Z,74.29
2017-06-09T00:43:40.271Z,74.29
2017-06-09T00:44:36.547Z,74.33
2017-06-09T00:45:32.868Z,74.36
2017-06-09T00:46:29.159Z,74.39
2017-06-09T00:47:25.682Z,74.43
2017-06-09T00:48:21.950Z,74.44
2017-06-09T00:49:19.042Z,74.42
2017-06-09T00:50:15.527Z,74.42
2017-06-09T00:51:12.031Z,74.48
2017-06-09T00:52:09.261Z,74.44
2017-06-09T00:53:05.554Z,74.45
2017-06-09T00:54:01.819Z,74.46
2017-06-09T00:54:58.484Z,74.47
2017-06-09T00:55:54.774Z,74.49
2017-06-09T00:56:51.059Z,74.49
2017-06-09T00:57:48.320Z,74.43
2017-06-09T00:58:44.759Z,74.46
2017-06-09T00:59:41.026Z,74.43
2017-06-09T01:00:38.596Z,74.43
2017-06-09T01:01:35.124Z,74.44
2017-06-09T01:02:31.449Z,74.48
2017-06-09T01:03:28.015Z,74.46
2017-06-09T01:04:24.347Z,74.47
2017-06-09T01:05:20.887Z,74.45
2017-06-09T01:06:17.841Z,74.44
2017-06-09T01:07:14.432Z,74.46
2017-06-09T01:08:11.016Z,74.46
2017-06-09T01:09:08.729Z,74.46
2017-06-09T01:10:05.564Z,74.49
2017-06-09T01:11:02.067Z,74.47
2017-06-09T01:11:58.736Z,74.55
2017-06-09T01:12:55.043Z,74.52
2017-06-09T01:13:51.331Z,74.59
2017-06-09T01:14:48.491Z,74.53
2017-06-09T01:15:45.696Z,74.61
2017-06-09T01:16:44.063Z,74.58
2017-06-09T01:17:42.335Z,74.57
2017-06-09T01:18:40.063Z,74.58
2017-06-09T01:19:36.461Z,74.60
2017-06-09T01:20:33.319Z,74.61
2017-06-09T01:21:30.419Z,74.60
2017-06-09T01:22:26.959Z,74.65
2017-06-09T01:23:23.732Z,74.70
2017-06-09T01:24:21.432Z,74.69
2017-06-09T01:25:17.835Z,74.76
2017-06-09T01:26:14.971Z,74.78
2017-06-09T01:27:12.467Z,74.82
2017-06-09T01:28:09.759Z,74.81
2017-06-09T01:29:06.248Z,74.87
2017-06-09T01:30:04.063Z,74.91
2017-06-09T01:31:01.419Z,74.96
2017-06-09T01:31:58.099Z,74.98
2017-06-09T01:32:55.287Z,74.98
2017-06-09T01:33:53.556Z,75.03
2017-06-09T01:34:51.805Z,75.08
2017-06-09T01:35:48.545Z,75.16
2017-06-09T01:36:46.113Z,75.14
2017-06-09T01:37:43.300Z,75.21
2017-06-09T01:38:41.477Z,75.29
2017-06-09T01:39:38.924Z,75.32
2017-06-09T01:41:40.752Z,75.37
2017-06-09T01:42:39.786Z,75.38
2017-06-09T01:43:43.333Z,75.44
2017-06-09T01:44:42.043Z,75.41
2017-06-09T01:45:40.381Z,75.47
2017-06-09T01:46:41.561Z,75.50
2017-06-09T01:47:44.081Z,75.54
2017-06-09T01:48:44.657Z,75.58
2017-06-09T01:49:43.525Z,75.65
2017-06-09T01:50:44.367Z,75.80
2017-06-09T01:51:44.231Z,75.79
2017-06-09T01:52:45.279Z,75.82
2017-06-09T01:53:43.156Z,75.87
2017-06-09T01:54:40.358Z,75.93
2017-06-09T01:55:41.371Z,75.99
2017-06-09T01:56:40.704Z,76.02
2017-06-09T01:57:39.194Z,76.10
2017-06-09T01:58:36.518Z,76.06
2017-06-09T01:59:34.762Z,76.14
2017-06-09T02:01:44.013Z,76.22
2017-06-09T02:02:45.049Z,76.24
2017-06-09T02:11:54.441Z,76.25
2017-06-09T02:12:52.646Z,75.66
2017-06-09T02:15:31.945Z,75.57
2017-06-09T02:16:30.981Z,75.60
2017-06-09T02:17:30.288Z,75.63
2017-06-09T02:19:31.617Z,75.88
2017-06-09T02:20:31.699Z,75.84
2017-06-09T02:21:32.494Z,75.82
2017-06-09T02:22:31.414Z,75.89
2017-06-09T02:23:32.153Z,75.81
2017-06-09T02:24:31.126Z,75.85
2017-06-09T02:25:32.160Z,75.84
2017-06-09T02:26:32.588Z,75.82
2017-06-09T02:27:30.880Z,75.83
2017-06-09T02:28:33.066Z,75.82
2017-06-09T02:29:36.991Z,75.82
2017-06-09T02:35:25.303Z,75.60
2017-06-09T02:36:22.905Z,75.41
2017-06-09T02:37:30.647Z,75.37
2017-06-09T02:38:28.493Z,75.60
2017-06-09T02:39:27.591Z,74.97
2017-06-09T02:40:24.114Z,74.19
2017-06-09T02:41:20.927Z,73.50
2017-06-09T02:42:17.351Z,73.02
2017-06-09T02:43:13.626Z,72.74
2017-06-09T02:44:09.887Z,72.36
2017-06-09T02:45:06.146Z,72.11
2017-06-09T02:46:02.414Z,71.93
2017-06-09T02:46:58.663Z,71.70
2017-06-09T02:47:54.894Z,71.58
2017-06-09T02:48:51.130Z,71.41
2017-06-09T02:49:47.374Z,71.25
2017-06-09T02:50:43.619Z,71.12
2017-06-09T02:51:39.887Z,70.99
2017-06-09T02:52:36.127Z,70.87
2017-06-09T02:53:32.370Z,70.78
2017-06-09T02:54:28.614Z,70.68
2017-06-09T02:55:24.859Z,70.62
2017-06-09T02:56:21.126Z,70.51
2017-06-09T02:57:17.374Z,70.36
2017-06-09T02:58:13.610Z,70.26
2017-06-09T02:59:09.850Z,70.13
2017-06-09T03:00:06.099Z,70.00
2017-06-09T03:01:02.347Z,69.89
2017-06-09T03:01:58.619Z,69.78
2017-06-09T03:02:54.855Z,69.67
2017-06-09T03:03:51.103Z,69.57
2017-06-09T03:04:47.343Z,69.47
2017-06-09T03:05:43.586Z,69.41
2017-06-09T03:06:39.822Z,69.37
2017-06-09T03:07:36.075Z,69.31
2017-06-09T03:08:32.320Z,69.21
2017-06-09T03:09:28.555Z,69.21
2017-06-09T03:10:24.783Z,69.17
2017-06-09T03:11:21.016Z,69.19
2017-06-09T03:12:17.267Z,69.14
2017-06-09T03:13:13.527Z,69.12
2017-06-09T03:14:09.767Z,69.05
2017-06-09T03:15:05.999Z,69.05
2017-06-09T03:16:02.243Z,69.02
2017-06-09T03:16:58.483Z,69.02
2017-06-09T03:17:54.743Z,68.97
2017-06-09T03:18:50.983Z,68.92
2017-06-09T03:19:47.219Z,68.91
2017-06-09T03:20:43.465Z,68.95
2017-06-09T03:21:39.698Z,68.98
2017-06-09T03:22:35.939Z,69.00
2017-06-09T03:23:32.202Z,68.98
2017-06-09T03:24:28.434Z,69.02
2017-06-09T03:25:24.671Z,69.00
2017-06-09T03:26:20.912Z,68.97
2017-06-09T03:27:17.154Z,69.05
2017-06-09T03:28:13.418Z,69.04
2017-06-09T03:29:09.723Z,69.05
2017-06-09T03:30:05.966Z,69.07
2017-06-09T03:31:02.209Z,69.09
2017-06-09T03:32:03.147Z,69.06
2017-06-09T03:33:04.095Z,69.07
2017-06-09T03:34:00.707Z,69.14
2017-06-09T03:34:56.956Z,69.16
2017-06-09T03:35:53.204Z,69.17
2017-06-09T03:36:49.447Z,69.13
2017-06-09T03:37:45.682Z,69.15
2017-06-09T03:38:41.931Z,69.18
2017-06-09T03:39:38.191Z,69.22
2017-06-09T03:40:34.435Z,69.19
2017-06-09T03:41:30.691Z,69.19
2017-06-09T03:42:26.959Z,69.23
2017-06-09T03:43:23.203Z,69.18
2017-06-09T03:44:19.443Z,69.38
2017-06-09T03:45:15.723Z,69.38
2017-06-09T03:46:11.979Z,69.41
2017-06-09T03:47:08.279Z,69.42
2017-06-09T03:48:04.536Z,69.50
2017-06-09T03:49:00.794Z,69.50
2017-06-09T03:49:57.042Z,69.53
2017-06-09T03:50:53.301Z,69.54
2017-06-09T03:51:49.558Z,69.62
2017-06-09T03:52:45.814Z,69.57
2017-06-09T03:53:42.072Z,69.68
2017-06-09T03:54:38.322Z,69.70
2017-06-09T03:55:34.591Z,69.66
2017-06-09T03:56:30.848Z,69.70
2017-06-09T03:57:27.082Z,69.67
2017-06-09T03:58:23.326Z,69.71
2017-06-09T03:59:19.570Z,69.74
2017-06-09T04:00:15.871Z,69.73
2017-06-09T04:01:12.131Z,69.79
2017-06-09T04:02:08.374Z,69.76
2017-06-09T04:03:04.635Z,69.85
2017-06-09T04:04:00.886Z,69.81
2017-06-09T04:04:57.167Z,69.91
2017-06-09T04:05:53.494Z,69.85
2017-06-09T04:06:49.787Z,69.92
2017-06-09T04:07:46.027Z,69.99
2017-06-09T04:08:42.288Z,70.07
2017-06-09T04:09:38.526Z,70.09
2017-06-09T04:10:34.860Z,70.13
2017-06-09T04:11:31.131Z,70.13
2017-06-09T04:12:27.374Z,70.13
2017-06-09T04:13:23.643Z,70.14
2017-06-09T04:14:19.915Z,70.16
2017-06-09T04:15:16.160Z,70.15
2017-06-09T04:16:12.407Z,70.19
2017-06-09T04:17:08.674Z,70.16
2017-06-09T04:18:04.927Z,70.18
2017-06-09T04:19:01.179Z,70.18
2017-06-09T04:19:57.426Z,70.21
2017-06-09T04:20:53.671Z,70.20
2017-06-09T04:21:49.919Z,70.25
2017-06-09T04:22:46.175Z,70.23
2017-06-09T04:23:42.424Z,70.19
2017-06-09T04:24:38.663Z,70.21
2017-06-09T04:25:34.922Z,70.20
2017-06-09T04:26:31.216Z,70.14
2017-06-09T04:27:27.526Z,70.18
2017-06-09T04:28:23.823Z,70.20
2017-06-09T04:29:20.119Z,70.21
2017-06-09T04:30:16.411Z,70.22
2017-06-09T04:31:12.702Z,70.19
2017-06-09T04:32:08.963Z,70.15
2017-06-09T04:33:05.228Z,70.13
2017-06-09T04:34:01.499Z,70.15
2017-06-09T04:34:57.927Z,70.17
2017-06-09T04:35:54.182Z,70.13
2017-06-09T04:36:50.427Z,70.13
2017-06-09T04:37:46.870Z,70.10
2017-06-09T04:38:43.600Z,70.05
2017-06-09T04:39:39.850Z,69.99
2017-06-09T04:40:36.086Z,69.93
2017-06-09T04:41:32.330Z,69.81
2017-06-09T04:42:28.571Z,69.74
2017-06-09T04:43:24.826Z,69.67
2017-06-09T04:44:21.058Z,69.66
2017-06-09T04:45:17.302Z,69.61
2017-06-09T04:46:13.541Z,69.55
2017-06-09T04:47:09.782Z,69.50
2017-06-09T04:48:06.038Z,69.39
2017-06-09T04:49:02.275Z,69.27
2017-06-09T04:49:58.519Z,69.21
2017-06-09T04:50:54.760Z,69.16
2017-06-09T04:51:51.066Z,69.09
2017-06-09T04:52:47.312Z,68.99
2017-06-09T04:53:43.627Z,68.90
2017-06-09T04:54:39.862Z,68.81
2017-06-09T04:55:36.087Z,68.72
2017-06-09T04:56:32.322Z,68.63
2017-06-09T04:57:28.559Z,68.56
2017-06-09T04:58:24.791Z,68.48
2017-06-09T04:59:21.035Z,68.41
2017-06-09T05:00:17.271Z,68.37
2017-06-09T05:01:13.576Z,68.32
2017-06-09T05:02:09.816Z,68.29
2017-06-09T05:03:06.051Z,68.20
2017-06-09T05:04:02.314Z,68.05
2017-06-09T05:04:58.550Z,67.93
2017-06-09T05:05:54.807Z,67.84
2017-06-09T05:06:51.043Z,67.76
2017-06-09T05:07:47.284Z,67.70
2017-06-09T05:08:43.535Z,67.66
2017-06-09T05:09:39.778Z,67.59
2017-06-09T05:10:36.018Z,67.58
2017-06-09T05:11:32.251Z,67.57
2017-06-09T05:12:28.495Z,67.51
2017-06-09T05:13:24.730Z,67.45
2017-06-09T05:14:20.975Z,67.37
2017-06-09T05:15:17.232Z,67.31
2017-06-09T05:16:13.468Z,67.34
2017-06-09T05:17:09.708Z,67.34
2017-06-09T05:18:05.943Z,67.29
2017-06-09T05:19:02.203Z,67.27
2017-06-09T05:19:58.454Z,67.21
2017-06-09T05:20:54.692Z,67.18
2017-06-09T05:21:55.660Z,67.17
2017-06-09T05:22:56.590Z,67.20
2017-06-09T05:23:57.530Z,67.16
2017-06-09T05:24:53.810Z,67.17
2017-06-09T05:25:53.659Z,67.15
2017-06-09T05:26:54.592Z,67.17
2017-06-09T05:27:55.583Z,67.18
2017-06-09T05:28:52.623Z,67.17
2017-06-09T05:29:48.914Z,67.10
2017-06-09T05:30:45.227Z,66.98
2017-06-09T05:31:45.342Z,66.94
2017-06-09T05:32:45.467Z,66.88
2017-06-09T05:33:46.416Z,66.87
2017-06-09T05:34:42.667Z,66.85
2017-06-09T05:35:38.903Z,66.89
2017-06-09T05:36:35.161Z,66.93
2017-06-09T05:37:31.435Z,66.97
2017-06-09T05:38:27.658Z,66.91
2017-06-09T05:39:23.894Z,66.85
2017-06-09T05:40:20.139Z,66.95
2017-06-09T05:41:16.431Z,67.00
2017-06-09T05:42:12.703Z,67.01
2017-06-09T05:43:08.955Z,66.97
2017-06-09T05:44:05.211Z,66.93
2017-06-09T05:45:01.455Z,66.83
2017-06-09T05:45:57.708Z,66.76
2017-06-09T05:46:53.967Z,66.72
2017-06-09T05:47:50.223Z,66.69
2017-06-09T05:48:46.488Z,66.62
2017-06-09T05:49:42.742Z,66.58
2017-06-09T05:50:38.979Z,66.51
2017-06-09T05:51:35.231Z,66.48
2017-06-09T05:52:31.499Z,66.48
2017-06-09T05:53:27.758Z,66.44
2017-06-09T05:54:23.996Z,66.45
2017-06-09T05:55:20.235Z,66.44
2017-06-09T05:56:16.483Z,66.44
2017-06-09T05:57:12.754Z,66.36
2017-06-09T05:58:09.003Z,66.35
2017-06-09T05:59:05.247Z,66.33
2017-06-09T06:00:01.492Z,66.33
2017-06-09T06:00:57.743Z,66.25
2017-06-09T06:01:53.999Z,66.20
2017-06-09T06:02:50.260Z,66.17
2017-06-09T06:03:46.519Z,66.12
2017-06-09T06:04:47.735Z,66.08
2017-06-09T06:05:43.986Z,65.98
2017-06-09T06:06:40.230Z,65.88
2017-06-09T06:07:36.471Z,65.79
2017-06-09T06:08:32.738Z,65.70
2017-06-09T06:09:28.990Z,65.53
2017-06-09T06:10:25.232Z,65.47
2017-06-09T06:11:21.470Z,65.47
2017-06-09T06:12:17.707Z,65.50
2017-06-09T06:13:13.979Z,65.45
2017-06-09T06:14:10.227Z,65.42
2017-06-09T06:15:06.521Z,65.46
2017-06-09T06:16:02.756Z,65.37
2017-06-09T06:16:59.005Z,65.25
2017-06-09T06:17:55.232Z,65.04
2017-06-09T06:18:51.559Z,64.83
2017-06-09T06:19:47.807Z,64.90
2017-06-09T06:20:44.055Z,64.84
2017-06-09T06:21:40.298Z,64.59
2017-06-09T06:22:36.548Z,64.40
2017-06-09T06:23:32.815Z,64.29
2017-06-09T06:24:29.055Z,64.08
2017-06-09T06:25:25.299Z,63.91
2017-06-09T06:26:21.538Z,63.89
2017-06-09T06:27:17.777Z,63.89
2017-06-09T06:28:14.023Z,63.74
2017-06-09T06:29:10.286Z,63.49
2017-06-09T06:30:06.522Z,63.39
2017-06-09T06:31:02.777Z,63.19
2017-06-09T06:31:59.022Z,63.04
2017-06-09T06:32:55.271Z,62.83
2017-06-09T06:33:51.574Z,62.58
2017-06-09T06:34:47.809Z,62.34
2017-06-09T06:35:44.047Z,62.14
2017-06-09T06:36:40.283Z,61.94
2017-06-09T06:37:36.527Z,61.89
2017-06-09T06:38:32.766Z,61.92
2017-06-09T06:39:29.036Z,62.01
2017-06-09T06:40:25.290Z,62.22
2017-06-09T06:41:22.360Z,62.21
2017-06-09T06:42:18.610Z,62.05
2017-06-09T06:43:14.847Z,62.03
2017-06-09T06:44:11.093Z,62.12
2017-06-09T06:45:07.352Z,62.12
2017-06-09T06:46:03.595Z,62.07
2017-06-09T06:46:59.847Z,61.99
2017-06-09T06:47:56.099Z,61.81
2017-06-09T06:48:52.390Z,61.48
2017-06-09T06:49:48.744Z,61.04
2017-06-09T06:50:45.023Z,60.57
2017-06-09T06:51:41.258Z,60.18
2017-06-09T06:52:37.507Z,59.96
2017-06-09T06:53:33.750Z,59.46
2017-06-09T06:54:29.994Z,59.29
2017-06-09T06:55:26.255Z,59.17
2017-06-09T06:56:22.502Z,59.25
2017-06-09T06:57:18.759Z,59.39
2017-06-09T06:58:14.995Z,59.36
2017-06-09T06:59:11.243Z,59.22
2017-06-09T07:00:07.523Z,59.21
2017-06-09T07:01:03.787Z,59.24
2017-06-09T07:02:00.023Z,59.32
2017-06-09T07:02:56.270Z,59.35
2017-06-09T07:03:52.523Z,59.32
2017-06-09T07:04:49.666Z,59.28
2017-06-09T07:05:45.939Z,59.27
2017-06-09T07:06:42.182Z,59.20
2017-06-09T07:07:38.423Z,59.17
2017-06-09T07:08:34.674Z,59.10
2017-06-09T07:09:30.918Z,58.87
2017-06-09T07:10:27.175Z,58.62
2017-06-09T07:11:23.467Z,58.51
2017-06-09T07:12:19.700Z,58.42
2017-06-09T07:13:16.002Z,58.39
2017-06-09T07:14:12.243Z,58.49
2017-06-09T07:15:08.490Z,58.75
2017-06-09T07:16:04.723Z,58.78
2017-06-09T07:17:00.983Z,58.60
2017-06-09T07:17:57.234Z,58.38
2017-06-09T07:18:53.483Z,58.35
2017-06-09T07:19:49.731Z,58.38
2017-06-09T07:20:45.962Z,58.46
2017-06-09T07:21:42.208Z,58.51
2017-06-09T07:22:38.478Z,58.56
2017-06-09T07:23:34.747Z,58.30
2017-06-09T07:24:30.982Z,58.02
2017-06-09T07:25:27.234Z,57.83
2017-06-09T07:26:23.484Z,57.48
2017-06-09T07:27:19.745Z,57.40
2017-06-09T07:28:15.983Z,57.11
2017-06-09T07:29:12.218Z,57.04
2017-06-09T07:30:08.503Z,56.99
2017-06-09T07:31:04.735Z,56.99
2017-06-09T07:32:00.974Z,57.06
2017-06-09T07:32:57.235Z,56.99
2017-06-09T07:33:53.466Z,57.17
2017-06-09T07:34:49.710Z,57.57
2017-06-09T07:35:45.950Z,57.99
2017-06-09T07:36:42.207Z,58.04
2017-06-09T07:37:38.443Z,58.02
2017-06-09T07:38:34.715Z,57.91
2017-06-09T07:39:30.967Z,57.84
2017-06-09T07:40:27.203Z,57.71
2017-06-09T07:41:23.459Z,57.66
2017-06-09T07:42:19.713Z,57.27
2017-06-09T07:43:15.954Z,57.14
2017-06-09T07:44:12.215Z,57.12
2017-06-09T07:45:13.147Z,57.09
2017-06-09T07:46:09.393Z,56.86
2017-06-09T07:47:05.643Z,56.40
2017-06-09T07:48:01.883Z,56.10
2017-06-09T07:48:58.153Z,56.08
2017-06-09T07:49:54.386Z,55.76
2017-06-09T07:50:50.631Z,55.64
2017-06-09T07:51:46.854Z,55.61
2017-06-09T07:52:43.074Z,55.60
2017-06-09T07:53:39.334Z,55.75
2017-06-09T07:54:35.608Z,55.94
2017-06-09T07:55:31.851Z,56.09
2017-06-09T07:56:28.092Z,56.04
2017-06-09T07:57:24.335Z,56.09
2017-06-09T07:58:20.578Z,56.07
2017-06-09T07:59:16.851Z,56.12
2017-06-09T08:00:13.086Z,56.27
2017-06-09T08:01:09.343Z,56.38
2017-06-09T08:02:05.612Z,56.36
2017-06-09T08:03:01.851Z,56.31
2017-06-09T08:03:58.091Z,55.93
2017-06-09T08:04:54.350Z,55.91
2017-06-09T08:05:50.590Z,55.61
2017-06-09T08:06:46.818Z,55.49
2017-06-09T08:07:43.054Z,55.21
2017-06-09T08:08:39.303Z,55.19
2017-06-09T08:09:35.542Z,55.17
2017-06-09T08:10:31.799Z,54.94
2017-06-09T08:11:28.031Z,54.85
2017-06-09T08:12:24.262Z,54.53
2017-06-09T08:13:20.503Z,54.49
2017-06-09T08:14:16.739Z,54.41
2017-06-09T08:15:12.987Z,54.54
2017-06-09T08:16:09.242Z,54.66
2017-06-09T08:17:05.486Z,54.64
2017-06-09T08:18:01.735Z,54.60
2017-06-09T08:18:57.978Z,54.55
2017-06-09T08:19:54.215Z,54.57
2017-06-09T08:20:50.468Z,54.62
2017-06-09T08:21:46.711Z,54.71
2017-06-09T08:22:42.954Z,54.48
2017-06-09T08:23:39.184Z,54.16
2017-06-09T08:24:35.438Z,54.14
2017-06-09T08:25:31.710Z,54.32
2017-06-09T08:26:27.958Z,54.27
2017-06-09T08:27:24.190Z,54.22
2017-06-09T08:28:20.416Z,54.36
2017-06-09T08:29:16.658Z,54.43
2017-06-09T08:30:12.887Z,54.33
2017-06-09T08:31:09.135Z,53.99
2017-06-09T08:32:05.379Z,53.88
2017-06-09T08:33:01.628Z,53.79
2017-06-09T08:33:57.875Z,53.67
2017-06-09T08:34:54.114Z,53.61
2017-06-09T08:35:50.359Z,53.65
2017-06-09T08:36:46.626Z,53.65
2017-06-09T08:37:42.852Z,53.70
2017-06-09T08:38:39.087Z,54.02
2017-06-09T08:39:35.326Z,54.32
2017-06-09T08:40:31.575Z,54.49
2017-06-09T08:41:27.815Z,54.58
2017-06-09T08:42:24.082Z,54.41
2017-06-09T08:43:20.327Z,54.30
2017-06-09T08:44:16.558Z,54.19
2017-06-09T08:45:12.811Z,54.06
2017-06-09T08:46:09.054Z,53.85
2017-06-09T08:47:05.287Z,53.46
2017-06-09T08:48:01.547Z,53.44
2017-06-09T08:48:57.770Z,53.56
2017-06-09T08:49:54.008Z,53.65
2017-06-09T08:50:50.247Z,53.57
2017-06-09T08:51:46.483Z,53.30
2017-06-09T08:52:42.798Z,53.14
2017-06-09T08:53:39.018Z,53.02
2017-06-09T08:54:35.254Z,53.00
2017-06-09T08:55:31.493Z,52.83
2017-06-09T08:56:27.731Z,52.65
2017-06-09T08:57:23.958Z,52.61
2017-06-09T08:58:20.214Z,52.56
2017-06-09T08:59:16.489Z,52.69
2017-06-09T09:00:12.691Z,52.68
2017-06-09T09:01:08.935Z,52.54
2017-06-09T09:02:05.171Z,52.64
2017-06-09T09:03:01.426Z,52.48
2017-06-09T09:03:57.666Z,52.46
2017-06-09T09:04:53.911Z,52.49
2017-06-09T09:05:50.147Z,52.60
2017-06-09T09:06:46.383Z,52.58
2017-06-09T09:07:42.622Z,52.34
2017-06-09T09:08:38.870Z,52.31
2017-06-09T09:09:35.099Z,51.94
2017-06-09T09:10:31.354Z,51.87
2017-06-09T09:11:27.628Z,52.02
2017-06-09T09:12:23.874Z,52.31
2017-06-09T09:13:20.115Z,52.00
2017-06-09T09:14:16.363Z,51.92
2017-06-09T09:15:12.602Z,51.61
2017-06-09T09:16:08.839Z,51.78
2017-06-09T09:17:05.086Z,51.99
2017-06-09T09:18:01.336Z,52.17
2017-06-09T09:18:57.575Z,52.11
2017-06-09T09:19:53.816Z,51.64
2017-06-09T09:20:50.062Z,51.77
2017-06-09T09:21:46.307Z,51.58
2017-06-09T09:22:42.572Z,51.27
2017-06-09T09:23:38.818Z,51.46
2017-06-09T09:24:35.063Z,51.42
2017-06-09T09:25:31.324Z,51.69
2017-06-09T09:26:27.555Z,52.09
2017-06-09T09:27:23.791Z,51.84
2017-06-09T09:28:20.047Z,51.64
2017-06-09T09:29:16.287Z,51.43
2017-06-09T09:30:12.539Z,51.07
2017-06-09T09:31:08.777Z,50.56
2017-06-09T09:32:05.011Z,50.39
2017-06-09T09:33:01.247Z,50.29
2017-06-09T09:33:57.490Z,50.35
2017-06-09T09:34:55.014Z,50.36
2017-06-09T09:35:51.339Z,50.67
2017-06-09T09:36:47.579Z,50.82
2017-06-09T09:37:43.875Z,50.66
2017-06-09T09:38:40.115Z,50.63
2017-06-09T09:39:36.393Z,50.40
2017-06-09T09:40:32.634Z,50.50
2017-06-09T09:41:28.899Z,50.62
2017-06-09T09:42:25.157Z,50.54
2017-06-09T09:43:21.391Z,50.39
2017-06-09T09:44:17.634Z,50.00
2017-06-09T09:45:13.895Z,49.69
2017-06-09T09:46:10.126Z,49.72
2017-06-09T09:47:06.395Z,50.08
2017-06-09T09:48:02.651Z,50.13
2017-06-09T09:48:58.907Z,49.89
2017-06-09T09:49:55.164Z,49.72
2017-06-09T09:50:51.432Z,49.78
2017-06-09T09:51:47.687Z,49.87
2017-06-09T09:52:43.960Z,49.55
2017-06-09T09:53:40.210Z,49.58
2017-06-09T09:54:36.472Z,49.47
2017-06-09T09:55:32.703Z,48.90
2017-06-09T09:56:28.947Z,48.56
2017-06-09T09:57:25.215Z,48.51
2017-06-09T09:58:21.463Z,48.69
2017-06-09T09:59:17.698Z,48.73
2017-06-09T10:00:13.934Z,48.77
2017-06-09T10:01:10.171Z,48.75
2017-06-09T10:02:06.415Z,48.89
2017-06-09T10:03:02.700Z,49.15
2017-06-09T10:03:58.951Z,49.32
2017-06-09T10:04:55.190Z,49.47
2017-06-09T10:05:51.426Z,49.69
2017-06-09T10:06:47.670Z,49.43
2017-06-09T10:07:43.915Z,49.30
2017-06-09T10:08:40.167Z,49.35
2017-06-09T10:09:36.410Z,49.49
2017-06-09T10:10:32.659Z,49.60
2017-06-09T10:11:28.899Z,49.75
2017-06-09T10:12:25.139Z,49.90
2017-06-09T10:13:21.381Z,49.89
2017-06-09T10:14:17.642Z,49.70
2017-06-09T10:15:13.872Z,49.65
2017-06-09T10:16:10.112Z,49.75
2017-06-09T10:17:06.358Z,50.03
2017-06-09T10:18:02.600Z,50.18
2017-06-09T10:18:58.894Z,50.08
2017-06-09T10:19:55.139Z,50.00
2017-06-09T10:20:51.383Z,49.92
2017-06-09T10:21:47.647Z,49.57
2017-06-09T10:22:43.902Z,49.41
2017-06-09T10:23:40.174Z,49.39
2017-06-09T10:24:36.435Z,49.54
2017-06-09T10:25:32.694Z,49.83
2017-06-09T10:26:28.944Z,50.00
2017-06-09T10:27:25.183Z,50.05
2017-06-09T10:28:21.419Z,50.29
2017-06-09T10:29:17.698Z,50.43
2017-06-09T10:30:13.947Z,50.38
2017-06-09T10:31:10.203Z,50.37
2017-06-09T10:32:06.442Z,50.41
2017-06-09T10:33:02.708Z,50.64
2017-06-09T10:33:58.967Z,50.93
2017-06-09T10:34:55.238Z,50.85
2017-06-09T10:35:51.479Z,50.77
2017-06-09T10:36:47.727Z,50.69
2017-06-09T10:37:43.982Z,50.60
2017-06-09T10:38:40.251Z,50.26
2017-06-09T10:39:36.496Z,50.06
2017-06-09T10:40:32.750Z,49.81
2017-06-09T10:41:28.989Z,49.56
2017-06-09T10:42:25.227Z,49.60
2017-06-09T10:43:21.470Z,49.74
2017-06-09T10:44:17.717Z,49.66
2017-06-09T10:45:13.971Z,49.51
2017-06-09T10:46:10.227Z,49.14
2017-06-09T10:47:06.475Z,49.07
2017-06-09T10:48:02.718Z,49.20
2017-06-09T10:48:58.964Z,49.24
2017-06-09T10:49:55.204Z,49.32
2017-06-09T10:50:51.471Z,49.46
2017-06-09T10:51:47.719Z,49.70
2017-06-09T10:52:43.967Z,49.88
2017-06-09T10:53:40.219Z,49.94
2017-06-09T10:54:36.442Z,50.06
2017-06-09T10:55:32.691Z,50.00
2017-06-09T10:56:28.948Z,50.02
2017-06-09T10:57:25.193Z,49.98
2017-06-09T10:58:21.438Z,49.98
2017-06-09T10:59:17.699Z,50.20
2017-06-09T11:00:13.931Z,50.33
2017-06-09T11:01:10.175Z,50.47
2017-06-09T11:02:06.439Z,50.49
2017-06-09T11:03:02.672Z,50.31
2017-06-09T11:03:58.902Z,50.27
2017-06-09T11:04:55.140Z,50.21
2017-06-09T11:05:51.392Z,50.32
2017-06-09T11:06:47.636Z,50.41
2017-06-09T11:07:43.892Z,50.38
2017-06-09T11:08:40.131Z,50.38
2017-06-09T11:09:36.367Z,50.68
2017-06-09T11:10:32.616Z,50.90
2017-06-09T11:11:28.854Z,51.00
2017-06-09T11:12:25.123Z,50.98
2017-06-09T11:13:21.362Z,51.05
2017-06-09T11:14:17.599Z,51.17
2017-06-09T11:15:13.844Z,51.34
2017-06-09T11:16:10.086Z,51.45
2017-06-09T11:17:06.335Z,51.31
2017-06-09T11:18:02.586Z,51.24
2017-06-09T11:18:59.239Z,51.50
2017-06-09T11:19:55.471Z,52.06
2017-06-09T11:20:51.711Z,52.55
2017-06-09T11:21:47.951Z,53.04
2017-06-09T11:22:44.206Z,53.07
2017-06-09T11:23:40.451Z,53.03
2017-06-09T11:24:36.691Z,53.14
2017-06-09T11:25:32.935Z,53.33
2017-06-09T11:26:29.163Z,53.67
2017-06-09T11:27:25.403Z,54.07
2017-06-09T11:28:21.643Z,54.38
2017-06-09T11:29:17.875Z,54.81
2017-06-09T11:30:14.119Z,55.13
2017-06-09T11:31:10.356Z,55.30
2017-06-09T11:32:06.590Z,55.66
2017-06-09T11:33:02.822Z,55.94
2017-06-09T11:33:59.090Z,56.33
2017-06-09T11:34:55.330Z,56.85
2017-06-09T11:35:51.567Z,57.50
2017-06-09T11:36:47.798Z,57.91
2017-06-09T11:37:44.066Z,58.61
2017-06-09T11:38:40.310Z,59.18
2017-06-09T11:39:36.642Z,59.07
2017-06-09T11:40:32.879Z,59.68
2017-06-09T11:41:29.119Z,60.21
2017-06-09T11:42:25.367Z,60.42
2017-06-09T11:43:21.602Z,60.82
2017-06-09T11:44:17.846Z,61.21
2017-06-09T11:45:14.090Z,61.76
2017-06-09T11:46:10.330Z,62.45
2017-06-09T11:47:06.559Z,62.91
2017-06-09T11:48:02.794Z,63.08
2017-06-09T11:48:59.038Z,63.43
2017-06-09T11:49:55.279Z,63.85
2017-06-09T11:50:51.531Z,63.97
2017-06-09T11:51:47.767Z,64.17
2017-06-09T11:52:44.015Z,64.38
2017-06-09T11:53:40.250Z,64.88
2017-06-09T11:54:36.491Z,65.21
2017-06-09T11:55:32.747Z,65.31
2017-06-09T11:56:28.986Z,65.27
2017-06-09T11:57:25.227Z,65.45
2017-06-09T11:58:21.462Z,65.59
2017-06-09T11:59:17.735Z,65.78
2017-06-09T12:00:13.974Z,66.34
2017-06-09T12:01:10.244Z,66.43
2017-06-09T12:02:06.475Z,66.43
2017-06-09T12:03:02.698Z,66.67
2017-06-09T12:03:58.931Z,67.08
2017-06-09T12:04:55.163Z,67.12
2017-06-09T12:05:51.469Z,67.10
2017-06-09T12:06:47.753Z,67.15
2017-06-09T12:07:44.026Z,67.40
2017-06-09T12:08:45.240Z,67.35
2017-06-09T12:09:41.815Z,67.35
2017-06-09T12:10:38.088Z,67.42
2017-06-09T12:11:34.327Z,67.61
2017-06-09T12:12:30.611Z,67.37
2017-06-09T12:13:26.866Z,67.46
2017-06-09T12:14:23.103Z,67.84
2017-06-09T12:15:19.342Z,68.00
2017-06-09T12:16:15.571Z,68.54
2017-06-09T12:17:11.838Z,68.62
2017-06-09T12:18:08.114Z,68.74
2017-06-09T12:19:04.337Z,69.10
2017-06-09T12:20:00.572Z,69.35
2017-06-09T12:20:56.806Z,69.33
2017-06-09T12:21:53.059Z,69.20
2017-06-09T12:22:49.322Z,69.20
2017-06-09T12:23:45.618Z,69.07
2017-06-09T12:24:41.846Z,68.94
2017-06-09T12:25:38.078Z,68.88
2017-06-09T12:26:34.310Z,69.07